Time;durP1;ratioP1;P1;durP2;ratioP2;P2;SDS_P1;SDS_P2;PMS_P1;PMS_P2;Temp;Humidity;BMP_temperature;BMP_pressure;BME280_temperature;BME280_humidity;BME280_pressure;Samples;Min_cycle;Max_cycle;Signal;HPM_P1;HPM_P2
2024/01/12 00:00:31;;;;;;;77.50;31.25;;;0.50;99.90;;;;;;4941733;28;20035;-81
2024/01/12 00:02:57;;;;;;;71.22;29.63;;;0.40;99.90;;;;;;4927805;28;20113;-81
2024/01/12 00:05:23;;;;;;;84.93;34.42;;;0.50;99.90;;;;;;4926596;28;20384;-82
2024/01/12 00:07:48;;;;;;;60.10;27.17;;;0.50;99.90;;;;;;4926092;28;20126;-80
2024/01/12 00:10:14;;;;;;;73.25;32.00;;;0.40;99.90;;;;;;4942149;28;20122;-80
2024/01/12 00:12:39;;;;;;;70.18;30.73;;;0.50;99.90;;;;;;4957429;28;20118;-80
2024/01/12 00:15:29;;;;;;;51.95;22.60;;;0.50;99.90;;;;;;4928638;28;20027;-81
2024/01/12 00:18:13;;;;;;;45.72;22.05;;;0.50;99.90;;;;;;4949886;28;20420;-80
2024/01/12 00:20:43;;;;;;;48.17;23.30;;;0.50;99.90;;;;;;4961630;28;20042;-81
2024/01/12 00:23:18;;;;;;;67.10;29.27;;;0.50;99.90;;;;;;4937447;28;20420;-81
2024/01/12 00:29:09;;;;;;;75.72;32.85;;;0.50;99.90;;;;;;4882323;29;20043;-80
2024/01/12 00:31:49;;;;;;;81.13;33.95;;;0.50;99.90;;;;;;4917183;29;20212;-81
2024/01/12 00:34:58;;;;;;;85.47;35.33;;;0.50;99.90;;;;;;4911240;29;20034;-80
2024/01/12 00:37:56;;;;;;;77.85;33.30;;;0.50;99.90;;;;;;4894591;29;20036;-81
2024/01/12 00:44:09;;;;;;;69.88;29.65;;;0.50;99.90;;;;;;4810909;29;20106;-81
2024/01/12 00:46:44;;;;;;;74.43;32.70;;;0.40;99.90;;;;;;4819218;29;20046;-80
2024/01/12 00:49:18;;;;;;;61.70;28.40;;;0.50;99.90;;;;;;4778518;29;20042;-81
2024/01/12 00:51:56;;;;;;;46.03;22.00;;;0.50;99.90;;;;;;4774348;29;20116;-81
2024/01/12 00:54:34;;;;;;;43.42;20.20;;;0.50;99.90;;;;;;4809818;29;20511;-82
2024/01/12 00:57:43;;;;;;;38.75;17.90;;;0.60;99.90;;;;;;4802327;29;20642;-80
2024/01/12 01:00:27;;;;;;;43.30;19.85;;;0.60;99.90;;;;;;4804726;29;20046;-81
2024/01/12 01:03:17;;;;;;;50.40;23.38;;;0.60;99.90;;;;;;4805758;29;20618;-80
2024/01/12 01:06:15;;;;;;;58.30;25.88;;;0.60;99.90;;;;;;4806153;29;20035;-80
2024/01/12 01:09:02;;;;;;;77.72;32.58;;;0.50;99.90;;;;;;4768641;29;20698;-79
2024/01/12 01:11:46;;;;;;;80.28;35.15;;;0.50;99.90;;;;;;4792166;29;20483;-79
2024/01/12 01:15:04;;;;;;;84.85;35.28;;;0.50;99.90;;;;;;4821924;29;20038;-79
2024/01/12 01:17:39;;;;;;;53.55;23.05;;;0.50;99.90;;;;;;4889785;28;20050;-80
2024/01/12 01:20:16;;;;;;;50.92;22.25;;;0.50;99.90;;;;;;4928538;28;20092;-79
2024/01/12 01:23:10;;;;;;;85.38;29.92;;;0.50;99.90;;;;;;4937093;28;20489;-80
2024/01/12 01:26:24;;;;;;;68.63;29.63;;;0.50;99.90;;;;;;4875769;29;20221;-79
2024/01/12 01:29:01;;;;;;;88.03;35.58;;;0.50;99.90;;;;;;4921250;28;20039;-80
2024/01/12 01:31:36;;;;;;;70.80;30.63;;;0.50;99.90;;;;;;4937579;28;20043;-79
2024/01/12 01:34:16;;;;;;;64.10;27.23;;;0.50;99.90;;;;;;4891408;28;20041;-79
2024/01/12 01:36:51;;;;;;;54.25;23.50;;;0.50;99.90;;;;;;4904573;28;20074;-79
2024/01/12 01:39:33;;;;;;;69.30;30.45;;;0.50;99.90;;;;;;4946675;28;20034;-78
2024/01/12 01:42:50;;;;;;;62.65;26.08;;;0.50;99.90;;;;;;4907225;28;20039;-79
2024/01/12 01:45:57;;;;;;;69.15;29.42;;;0.50;99.90;;;;;;4929990;28;20461;-79
2024/01/12 01:48:32;;;;;;;66.10;29.67;;;0.50;99.90;;;;;;4882207;28;20394;-80
2024/01/12 01:51:14;;;;;;;88.35;33.70;;;0.50;99.90;;;;;;4915809;28;20420;-80
2024/01/12 01:53:56;;;;;;;68.32;28.83;;;0.50;99.90;;;;;;4911942;28;20396;-79
2024/01/12 01:57:08;;;;;;;92.07;33.92;;;0.50;99.90;;;;;;4889797;29;20071;-80
2024/01/12 02:03:17;;;;;;;59.25;23.48;;;0.40;99.90;;;;;;4858915;28;20038;-79
2024/01/12 02:06:36;;;;;;;57.67;22.35;;;0.60;99.90;;;;;;4901178;28;20055;-79
2024/01/12 02:09:04;;;;;;;59.35;26.58;;;0.60;99.90;;;;;;4946552;28;20050;-80
2024/01/12 02:11:29;;;;;;;53.28;21.98;;;0.60;99.90;;;;;;4945048;28;20396;-80
2024/01/12 02:13:56;;;;;;;82.63;33.70;;;0.60;99.90;;;;;;4944604;28;20038;-80
2024/01/12 02:16:21;;;;;;;80.40;32.00;;;0.60;99.90;;;;;;4943834;28;20407;-80
2024/01/12 02:18:47;;;;;;;90.07;34.15;;;0.60;99.90;;;;;;4928143;28;20047;-78
2024/01/12 02:21:12;;;;;;;104.15;38.28;;;0.60;99.90;;;;;;4913621;28;20050;-79
2024/01/12 02:23:38;;;;;;;60.38;25.15;;;0.60;99.90;;;;;;4910368;28;20054;-78
2024/01/12 02:26:03;;;;;;;70.28;31.05;;;0.60;99.90;;;;;;4912194;28;20035;-79
2024/01/12 02:28:29;;;;;;;98.45;37.58;;;0.50;99.90;;;;;;4924432;28;20058;-79
2024/01/12 02:30:55;;;;;;;74.25;29.75;;;0.60;99.90;;;;;;4908993;28;20566;-79
2024/01/12 02:33:20;;;;;;;55.53;22.05;;;0.60;99.90;;;;;;4911845;28;20037;-79
2024/01/12 02:35:46;;;;;;;65.30;27.83;;;0.60;99.90;;;;;;4914731;28;20041;-79
2024/01/12 02:38:12;;;;;;;59.70;24.65;;;0.60;99.90;;;;;;4959342;28;20027;-79
2024/01/12 02:40:37;;;;;;;68.32;29.00;;;0.60;99.90;;;;;;4941284;28;20111;-79
2024/01/12 02:43:03;;;;;;;57.35;23.95;;;0.60;99.90;;;;;;4929308;28;20106;-79
2024/01/12 02:45:28;;;;;;;78.63;30.48;;;0.60;99.90;;;;;;4955607;28;20042;-79
2024/01/12 02:47:54;;;;;;;64.95;25.85;;;0.60;99.90;;;;;;4932507;28;20086;-79
2024/01/12 02:50:22;;;;;;;78.20;29.02;;;0.60;99.90;;;;;;4944346;28;20035;-79
2024/01/12 02:52:55;;;;;;;77.32;27.52;;;0.60;99.90;;;;;;4934969;28;20544;-79
2024/01/12 02:56:05;;;;;;;57.33;23.92;;;0.60;99.90;;;;;;4914653;28;20047;-79
2024/01/12 03:35:17;;;;;;;110.85;36.05;;;0.70;99.90;;;;;;4918469;28;20591;-78
2024/01/12 03:41:58;;;;;;;;;;;;;;;;;;;;;
2024/01/12 03:44:31;;;;;;;114.95;33.88;;;0.60;99.90;;;;;;4914498;28;20574;-79
2024/01/12 03:47:48;;;;;;;86.53;31.45;;;0.60;99.90;;;;;;4942264;28;20038;-79
2024/01/12 03:51:19;;;;;;;;;;;;;;;;;;;;;
2024/01/12 04:01:45;;;;;;;;;;;;;;;;;;;;;
2024/01/12 04:15:16;;;;;;;114.53;35.38;;;0.60;99.90;;;;;;4837548;29;20095;-80
2024/01/12 04:21:42;;;;;;;130.57;40.47;;;0.60;99.90;;;;;;4811828;29;20569;-79
2024/01/12 04:24:25;;;;;;;110.88;36.53;;;0.60;99.90;;;;;;4835692;29;20051;-79
2024/01/12 04:27:28;;;;;;;91.35;32.80;;;0.60;99.90;;;;;;4848522;28;20130;-79
2024/01/12 04:30:55;;;;;;;101.15;32.78;;;0.60;99.90;;;;;;4841332;29;20041;-79
2024/01/12 04:33:55;;;;;;;107.65;35.58;;;0.70;99.90;;;;;;4818099;29;20162;-79
2024/01/12 04:40:17;;;;;;;92.07;30.75;;;0.60;99.90;;;;;;4783566;29;20054;-78
2024/01/12 04:42:42;;;;;;;91.50;29.20;;;0.60;99.90;;;;;;4809109;29;20033;-79
2024/01/12 04:45:17;;;;;;;113.10;36.35;;;0.60;99.90;;;;;;4819275;29;20034;-78
2024/01/12 04:47:56;;;;;;;105.80;38.97;;;0.60;99.90;;;;;;4830187;29;20171;-79
2024/01/12 04:50:22;;;;;;;111.70;36.03;;;0.60;99.90;;;;;;4804495;29;20042;-78
2024/01/12 04:52:48;;;;;;;92.03;32.58;;;0.60;99.90;;;;;;4837412;29;20049;-79
2024/01/12 04:55:16;;;;;;;106.90;35.28;;;0.60;99.90;;;;;;4898555;28;20119;-78
2024/01/12 04:57:42;;;;;;;113.50;37.70;;;0.60;99.90;;;;;;4920838;28;20101;-78
2024/01/12 05:00:36;;;;;;;109.35;36.88;;;0.60;99.90;;;;;;4914409;28;20559;-78
2024/01/12 05:03:25;;;;;;;69.60;25.73;;;0.60;99.90;;;;;;4883876;28;20038;-79
2024/01/12 05:06:23;;;;;;;124.68;41.42;;;0.60;99.90;;;;;;4906804;28;20047;-78
2024/01/12 05:08:59;;;;;;;115.97;37.95;;;0.70;99.90;;;;;;4910866;28;20042;-78
2024/01/12 05:11:30;;;;;;;74.28;24.48;;;0.70;99.90;;;;;;4936120;28;20489;-79
2024/01/12 05:13:56;;;;;;;77.70;29.92;;;0.60;99.90;;;;;;4925730;28;20027;-78
2024/01/12 05:16:22;;;;;;;91.55;32.10;;;0.70;99.90;;;;;;4930691;28;20045;-78
2024/01/12 05:18:47;;;;;;;102.65;38.58;;;0.70;99.90;;;;;;4932451;28;20039;-78
2024/01/12 05:21:13;;;;;;;102.50;35.40;;;0.70;99.90;;;;;;4929111;28;20046;-78
2024/01/12 05:23:38;;;;;;;110.50;36.92;;;0.70;99.90;;;;;;4946564;28;20045;-78
2024/01/12 05:26:04;;;;;;;134.43;38.97;;;0.70;99.90;;;;;;4940431;28;20820;-78
2024/01/12 05:28:29;;;;;;;141.13;41.42;;;0.70;99.90;;;;;;4927184;28;20046;-78
2024/01/12 05:30:55;;;;;;;127.18;36.10;;;0.70;99.90;;;;;;4952770;28;20130;-79
2024/01/12 05:33:20;;;;;;;109.60;36.15;;;0.80;99.90;;;;;;4938264;28;20122;-79
2024/01/12 05:35:46;;;;;;;86.82;31.60;;;0.70;99.90;;;;;;4944719;28;20088;-79
2024/01/12 05:38:11;;;;;;;109.80;36.63;;;0.70;99.90;;;;;;4946010;28;20031;-79
2024/01/12 05:40:38;;;;;;;106.97;35.03;;;0.70;99.90;;;;;;4941393;28;20041;-78
2024/01/12 05:43:32;;;;;;;113.72;34.00;;;0.60;99.90;;;;;;4903383;28;20039;-78
2024/01/12 05:46:01;;;;;;;108.13;34.55;;;0.60;99.90;;;;;;4891688;28;20037;-79
2024/01/12 05:48:26;;;;;;;111.82;34.65;;;0.60;99.90;;;;;;4903267;28;20543;-79
2024/01/12 05:50:52;;;;;;;108.05;35.15;;;0.60;99.90;;;;;;4937005;28;20037;-80
2024/01/12 05:53:21;;;;;;;92.90;31.92;;;0.70;99.90;;;;;;4927340;28;20030;-80
2024/01/12 05:55:47;;;;;;;114.55;33.00;;;0.70;99.90;;;;;;4953624;28;20065;-79
2024/01/12 05:58:13;;;;;;;87.43;30.35;;;0.60;99.90;;;;;;4944576;28;20667;-80
2024/01/12 06:00:39;;;;;;;114.68;35.92;;;0.70;99.90;;;;;;4958615;28;20042;-80
2024/01/12 06:03:04;;;;;;;80.47;27.48;;;0.70;99.90;;;;;;4941498;28;20038;-79
2024/01/12 06:05:30;;;;;;;87.55;28.60;;;0.70;99.90;;;;;;4944110;28;20035;-79
2024/01/12 06:07:58;;;;;;;66.53;23.75;;;0.70;99.90;;;;;;4957855;28;20042;-80
2024/01/12 06:10:24;;;;;;;67.22;24.73;;;0.70;99.90;;;;;;4943901;28;20047;-80
2024/01/12 06:12:49;;;;;;;90.85;28.73;;;0.70;99.90;;;;;;4942940;28;20573;-80
2024/01/12 06:15:15;;;;;;;117.72;34.78;;;0.70;99.90;;;;;;4958446;28;20680;-79
2024/01/12 06:17:40;;;;;;;88.63;28.90;;;0.70;99.90;;;;;;4939470;28;20239;-79
2024/01/12 06:20:07;;;;;;;94.68;31.75;;;0.70;99.90;;;;;;4940237;28;20039;-79
2024/01/12 06:22:33;;;;;;;41.90;16.40;;;0.70;99.90;;;;;;4955157;28;20129;-79
2024/01/12 06:24:58;;;;;;;51.90;17.65;;;0.60;99.90;;;;;;4942751;28;20488;-79
2024/01/12 06:27:24;;;;;;;55.75;21.70;;;0.70;99.90;;;;;;4927425;28;20030;-80
2024/01/12 06:29:49;;;;;;;44.78;17.42;;;0.70;99.90;;;;;;4944406;28;20082;-81
2024/01/12 06:32:15;;;;;;;90.78;28.10;;;0.60;99.90;;;;;;4929197;28;20093;-80
2024/01/12 06:34:40;;;;;;;72.30;23.60;;;0.60;99.90;;;;;;4928414;28;20042;-80
2024/01/12 06:37:06;;;;;;;79.63;27.15;;;0.70;99.90;;;;;;4957016;28;20389;-80
2024/01/12 06:39:32;;;;;;;63.67;22.98;;;0.70;99.90;;;;;;4927165;28;20032;-80
2024/01/12 06:41:58;;;;;;;68.90;25.63;;;0.70;99.90;;;;;;4928734;28;20042;-81
2024/01/12 06:44:26;;;;;;;69.30;23.70;;;0.60;99.90;;;;;;4905997;28;20109;-80
2024/01/12 06:46:51;;;;;;;50.88;19.00;;;0.70;99.90;;;;;;4912570;28;20109;-80
2024/01/12 06:49:17;;;;;;;70.53;25.17;;;0.60;99.90;;;;;;4937726;28;20046;-80
2024/01/12 06:51:42;;;;;;;33.47;13.50;;;0.70;99.90;;;;;;4954708;28;20129;-79
2024/01/12 06:54:10;;;;;;;42.60;14.45;;;0.60;99.90;;;;;;4944132;28;20067;-79
2024/01/12 06:56:37;;;;;;;41.58;16.27;;;0.60;99.90;;;;;;4943680;28;20039;-79
2024/01/12 06:59:04;;;;;;;42.45;16.00;;;0.70;99.90;;;;;;4942891;28;20806;-80
2024/01/12 07:01:29;;;;;;;60.97;23.45;;;0.70;99.90;;;;;;4944976;28;20110;-79
2024/01/12 07:03:55;;;;;;;51.00;20.52;;;0.70;99.90;;;;;;4943465;28;20430;-79
2024/01/12 07:06:20;;;;;;;53.55;19.35;;;0.70;99.90;;;;;;4939204;28;20449;-79
2024/01/12 07:08:46;;;;;;;51.35;18.70;;;0.70;99.90;;;;;;4956037;28;20027;-79
2024/01/12 07:11:14;;;;;;;52.45;19.20;;;0.70;99.90;;;;;;4954860;28;20314;-79
2024/01/12 07:13:40;;;;;;;50.63;18.08;;;0.70;99.90;;;;;;4926938;28;22291;-79
2024/01/12 07:16:06;;;;;;;45.40;16.45;;;0.60;99.90;;;;;;4941543;28;20282;-80
2024/01/12 07:18:31;;;;;;;35.22;14.45;;;0.70;99.90;;;;;;4944649;28;20045;-80
2024/01/12 07:21:02;;;;;;;25.15;12.13;;;0.70;99.90;;;;;;4914591;29;20027;-80
2024/01/12 07:23:31;;;;;;;32.72;12.50;;;0.60;99.90;;;;;;4931412;28;20029;-79
2024/01/12 07:25:58;;;;;;;36.25;13.38;;;0.70;99.90;;;;;;4930192;28;20407;-80
2024/01/12 07:28:27;;;;;;;41.13;16.20;;;0.70;99.90;;;;;;4941485;28;20665;-80
2024/01/12 07:30:53;;;;;;;40.00;17.70;;;0.70;99.90;;;;;;4939292;28;20035;-79
2024/01/12 07:33:22;;;;;;;36.33;15.75;;;0.70;99.90;;;;;;4929457;28;20411;-80
2024/01/12 07:35:48;;;;;;;74.07;21.30;;;0.70;99.90;;;;;;4931806;28;20392;-80
2024/01/12 07:38:13;;;;;;;34.55;14.50;;;0.70;99.90;;;;;;4930475;28;20031;-79
2024/01/12 07:40:39;;;;;;;51.50;20.35;;;0.70;99.90;;;;;;4956330;28;20130;-79
2024/01/12 07:43:04;;;;;;;42.85;17.52;;;0.70;99.90;;;;;;4938802;28;20098;-80
2024/01/12 07:45:30;;;;;;;38.38;15.35;;;0.70;99.90;;;;;;4926641;28;20062;-79
2024/01/12 07:47:56;;;;;;;42.13;17.15;;;0.70;99.90;;;;;;4916662;28;20051;-80
2024/01/12 07:50:30;;;;;;;40.33;15.43;;;0.70;99.90;;;;;;4916137;28;20030;-80
2024/01/12 07:52:55;;;;;;;36.42;13.98;;;0.70;99.90;;;;;;4940876;28;20047;-79
2024/01/12 07:55:21;;;;;;;52.85;20.08;;;0.80;99.90;;;;;;4955292;28;20085;-79
2024/01/12 07:57:46;;;;;;;44.35;17.08;;;0.70;99.90;;;;;;4938273;28;20482;-79
2024/01/12 08:00:12;;;;;;;39.42;16.25;;;0.70;99.90;;;;;;4937635;28;20035;-79
2024/01/12 08:02:38;;;;;;;38.22;14.90;;;0.70;99.90;;;;;;4924258;28;20438;-79
2024/01/12 08:05:04;;;;;;;37.90;15.02;;;0.70;99.90;;;;;;4941794;28;20042;-78
2024/01/12 08:07:29;;;;;;;44.30;16.55;;;0.70;99.90;;;;;;4928518;28;20257;-79
2024/01/12 08:09:55;;;;;;;38.90;15.77;;;0.70;99.90;;;;;;4940693;28;20079;-78
2024/01/12 08:12:20;;;;;;;40.50;14.30;;;0.70;99.90;;;;;;4956974;28;20037;-78
2024/01/12 08:14:46;;;;;;;36.90;15.70;;;0.70;99.90;;;;;;4956457;28;20050;-78
2024/01/12 08:17:12;;;;;;;32.40;14.05;;;0.80;99.90;;;;;;4941070;28;20066;-79
2024/01/12 08:19:37;;;;;;;29.92;14.38;;;0.80;99.90;;;;;;4955147;28;20063;-78
2024/01/12 08:22:03;;;;;;;40.85;16.52;;;0.70;99.90;;;;;;4945861;28;20030;-78
2024/01/12 08:24:28;;;;;;;42.45;16.52;;;0.70;99.90;;;;;;4940755;28;20110;-79
2024/01/12 08:26:54;;;;;;;34.20;15.43;;;0.70;99.90;;;;;;4957452;28;20046;-78
2024/01/12 08:29:22;;;;;;;43.63;17.83;;;0.70;99.90;;;;;;4958353;28;20042;-79
2024/01/12 08:31:51;;;;;;;40.33;16.60;;;0.70;99.90;;;;;;4943511;28;20034;-78
2024/01/12 08:34:19;;;;;;;45.80;18.08;;;0.70;99.90;;;;;;4941148;28;20115;-78
2024/01/12 08:36:45;;;;;;;55.05;21.55;;;0.70;99.90;;;;;;4952628;28;20073;-79
2024/01/12 08:39:10;;;;;;;45.85;17.70;;;0.80;99.90;;;;;;4939872;28;20062;-78
2024/01/12 08:41:36;;;;;;;45.08;19.13;;;0.70;99.90;;;;;;4945743;28;20080;-78
2024/01/12 08:44:01;;;;;;;53.10;22.13;;;0.80;99.90;;;;;;4955986;28;20031;-79
2024/01/12 08:46:27;;;;;;;67.82;29.17;;;0.80;99.90;;;;;;4942162;28;20043;-79
2024/01/12 08:48:54;;;;;;;62.47;26.95;;;0.70;99.90;;;;;;4959024;28;20051;-78
2024/01/12 08:51:20;;;;;;;64.88;28.23;;;0.70;99.90;;;;;;4930196;28;20026;-78
2024/01/12 08:53:46;;;;;;;51.33;24.45;;;0.70;99.90;;;;;;4919073;28;20046;-77
2024/01/12 08:56:12;;;;;;;49.78;22.00;;;0.80;99.90;;;;;;4935586;28;20035;-79
2024/01/12 08:58:38;;;;;;;54.55;24.00;;;0.80;99.90;;;;;;4926614;28;20038;-80
2024/01/12 09:01:04;;;;;;;53.80;24.83;;;0.80;99.90;;;;;;4945014;28;20019;-80
2024/01/12 09:03:30;;;;;;;62.35;25.60;;;0.80;99.90;;;;;;4958406;28;20030;-80
2024/01/12 09:05:55;;;;;;;52.00;26.75;;;0.80;99.90;;;;;;4932551;28;20039;-80
2024/01/12 09:08:21;;;;;;;53.78;25.45;;;0.80;99.90;;;;;;4925823;28;20517;-81
2024/01/12 09:10:47;;;;;;;56.47;26.00;;;0.80;99.90;;;;;;4943025;28;20047;-80
2024/01/12 09:13:12;;;;;;;63.75;27.30;;;0.80;99.90;;;;;;4939206;28;20027;-78
2024/01/12 09:15:38;;;;;;;53.58;24.48;;;0.80;99.90;;;;;;4946171;28;20755;-78
2024/01/12 09:18:04;;;;;;;54.42;26.55;;;0.80;99.90;;;;;;4929694;28;20582;-79
2024/01/12 09:20:32;;;;;;;64.45;28.95;;;0.90;99.90;;;;;;4942047;28;20045;-78
2024/01/12 09:22:58;;;;;;;70.68;30.27;;;0.90;99.90;;;;;;4944517;28;20035;-78
2024/01/12 09:25:29;;;;;;;48.15;24.08;;;0.80;99.90;;;;;;4933177;28;20146;-79
2024/01/12 09:27:57;;;;;;;59.88;27.30;;;0.90;99.90;;;;;;4915878;29;20040;-78
2024/01/12 09:30:22;;;;;;;64.03;27.15;;;0.90;99.90;;;;;;4906381;28;20445;-78
2024/01/12 09:32:48;;;;;;;64.65;26.65;;;1.00;99.90;;;;;;4919117;28;1076360;-78
2024/01/12 09:35:13;;;;;;;68.53;27.77;;;1.00;99.90;;;;;;4930757;28;20033;-78
2024/01/12 09:37:39;;;;;;;48.25;21.77;;;1.00;99.90;;;;;;4955912;28;20063;-78
2024/01/12 09:40:06;;;;;;;64.13;27.20;;;1.00;99.90;;;;;;4940240;28;20056;-79
2024/01/12 09:42:32;;;;;;;69.43;27.85;;;1.00;99.90;;;;;;4943683;28;20094;-78
2024/01/12 09:44:58;;;;;;;77.63;32.97;;;1.00;99.90;;;;;;4940313;28;20031;-78
2024/01/12 09:47:24;;;;;;;55.28;25.83;;;1.00;99.90;;;;;;4945165;28;20126;-78
2024/01/12 09:49:49;;;;;;;61.25;27.85;;;1.00;99.90;;;;;;4938874;28;20118;-78
2024/01/12 09:52:15;;;;;;;61.65;24.75;;;1.00;99.90;;;;;;4925020;28;20039;-79
2024/01/12 09:54:41;;;;;;;44.85;19.52;;;1.10;99.90;;;;;;4913531;28;20505;-78
2024/01/12 09:57:07;;;;;;;55.53;24.17;;;1.10;99.90;;;;;;4927341;28;20039;-78
2024/01/12 09:59:32;;;;;;;35.70;16.25;;;1.10;99.90;;;;;;4903415;28;20034;-78
2024/01/12 10:01:58;;;;;;;51.22;22.45;;;1.10;99.90;;;;;;4922477;28;20035;-78
2024/01/12 10:04:24;;;;;;;58.22;23.73;;;1.10;99.90;;;;;;4918326;28;20482;-79
2024/01/12 10:06:52;;;;;;;71.60;29.35;;;1.10;99.90;;;;;;4945470;28;20062;-78
2024/01/12 10:09:17;;;;;;;63.70;27.20;;;1.10;99.90;;;;;;4926110;28;20041;-79
2024/01/12 10:11:43;;;;;;;63.20;27.27;;;1.10;99.90;;;;;;4942828;28;20398;-77
2024/01/12 10:14:08;;;;;;;66.00;26.63;;;1.10;99.90;;;;;;4956719;28;20030;-79
2024/01/12 10:16:43;;;;;;;68.50;31.55;;;1.10;99.90;;;;;;4935432;28;20383;-79
2024/01/12 10:19:08;;;;;;;73.03;30.27;;;1.10;99.90;;;;;;4913730;29;20047;-78
2024/01/12 10:21:38;;;;;;;64.20;27.23;;;1.10;99.90;;;;;;4960133;28;20035;-77
2024/01/12 10:24:07;;;;;;;57.55;24.20;;;1.10;99.90;;;;;;4958294;28;20038;-78
2024/01/12 10:26:32;;;;;;;67.20;28.75;;;1.20;99.90;;;;;;4943434;28;20027;-79
2024/01/12 10:29:05;;;;;;;59.00;24.10;;;1.20;99.90;;;;;;4948346;28;20074;-78
2024/01/12 10:31:30;;;;;;;66.85;25.60;;;1.20;99.90;;;;;;4944793;28;20054;-78
2024/01/12 10:33:59;;;;;;;67.10;25.38;;;1.30;99.90;;;;;;4935493;28;20034;-79
2024/01/12 10:36:29;;;;;;;55.28;22.17;;;1.30;99.90;;;;;;4913919;28;20031;-78
2024/01/12 10:38:56;;;;;;;62.53;25.75;;;1.20;99.90;;;;;;4942052;28;20126;-77
2024/01/12 10:41:22;;;;;;;44.72;20.40;;;1.30;99.90;;;;;;4944336;28;20078;-78
2024/01/12 10:43:51;;;;;;;56.80;24.13;;;1.30;99.90;;;;;;4945915;28;20057;-79
2024/01/12 10:46:35;;;;;;;50.72;21.70;;;1.30;99.90;;;;;;4932288;28;20037;-78
2024/01/12 10:49:07;;;;;;;44.03;19.75;;;1.40;99.90;;;;;;4923699;28;20577;-78
2024/01/12 10:51:36;;;;;;;45.42;19.73;;;1.40;99.90;;;;;;4942682;28;20449;-79
2024/01/12 10:54:09;;;;;;;39.67;16.05;;;1.40;99.90;;;;;;4953800;28;20043;-79
2024/01/12 10:56:35;;;;;;;48.47;19.80;;;1.50;99.90;;;;;;4946044;28;20654;-79
2024/01/12 10:59:03;;;;;;;38.80;17.27;;;1.60;99.90;;;;;;4931868;28;20034;-78
2024/01/12 11:01:29;;;;;;;36.92;16.63;;;1.60;99.90;;;;;;4959642;28;20037;-79
2024/01/12 11:03:55;;;;;;;37.13;14.68;;;1.60;99.90;;;;;;4930092;28;20153;-79
2024/01/12 11:06:20;;;;;;;29.55;12.25;;;1.70;99.90;;;;;;4946250;28;20027;-78
2024/01/12 11:08:48;;;;;;;30.92;13.10;;;1.70;99.90;;;;;;4942439;28;20038;-78
2024/01/12 11:11:13;;;;;;;33.83;13.73;;;1.80;99.90;;;;;;4903207;28;20034;-78
2024/01/12 11:13:48;;;;;;;31.60;13.80;;;1.70;99.90;;;;;;4924883;28;20045;-78
2024/01/12 11:16:14;;;;;;;24.27;10.85;;;1.90;99.90;;;;;;4942970;28;20047;-78
2024/01/12 11:18:39;;;;;;;28.17;12.30;;;1.90;99.90;;;;;;4943210;28;20027;-78
2024/01/12 11:21:09;;;;;;;29.48;13.85;;;2.00;99.90;;;;;;4940548;28;20090;-78
2024/01/12 11:23:39;;;;;;;26.13;12.50;;;1.90;99.90;;;;;;4935270;28;20023;-78
2024/01/12 11:26:04;;;;;;;34.55;14.52;;;2.00;99.90;;;;;;4954838;28;20066;-79
2024/01/12 11:28:37;;;;;;;36.38;12.25;;;2.00;99.90;;;;;;4938984;28;20055;-79
2024/01/12 11:31:03;;;;;;;33.88;14.32;;;2.00;99.90;;;;;;4954703;28;20602;-78
2024/01/12 11:33:28;;;;;;;30.70;13.50;;;2.10;99.90;;;;;;4944626;28;20034;-79
2024/01/12 11:35:54;;;;;;;43.72;15.95;;;2.10;99.90;;;;;;4943266;28;20042;-79
2024/01/12 11:38:20;;;;;;;41.13;14.50;;;2.10;99.90;;;;;;4954059;28;20505;-77
2024/01/12 11:40:48;;;;;;;42.53;16.58;;;2.20;99.90;;;;;;4930763;28;20042;-80
2024/01/12 11:43:19;;;;;;;42.28;15.88;;;2.20;99.90;;;;;;4912553;28;20035;-80
2024/01/12 11:45:45;;;;;;;45.53;13.80;;;2.20;99.90;;;;;;4949374;28;20035;-80
2024/01/12 11:48:14;;;;;;;55.70;18.02;;;2.20;99.90;;;;;;4944668;28;20057;-82
2024/01/12 11:50:43;;;;;;;43.80;14.38;;;2.30;99.90;;;;;;4954992;28;20520;-81
2024/01/12 11:53:08;;;;;;;51.72;17.85;;;2.30;99.90;;;;;;4922653;28;20031;-79
2024/01/12 11:55:36;;;;;;;52.05;20.27;;;2.30;99.90;;;;;;4953108;28;20035;-79
2024/01/12 11:58:01;;;;;;;51.90;18.88;;;2.30;99.90;;;;;;4940753;28;20220;-79
2024/01/12 12:00:27;;;;;;;58.90;21.45;;;2.30;99.90;;;;;;4923228;28;20110;-79
2024/01/12 12:02:52;;;;;;;49.03;20.60;;;2.30;99.90;;;;;;4927507;28;20031;-79
2024/01/12 12:05:18;;;;;;;53.67;17.48;;;2.40;99.90;;;;;;4955176;28;20096;-79
2024/01/12 12:07:43;;;;;;;43.17;16.67;;;2.40;99.90;;;;;;4937874;28;20040;-79
2024/01/12 12:10:09;;;;;;;62.65;24.70;;;2.40;99.90;;;;;;4952457;28;20558;-79
2024/01/12 12:12:35;;;;;;;44.92;17.05;;;2.40;99.90;;;;;;4939064;28;20366;-78
2024/01/12 12:15:05;;;;;;;54.50;22.95;;;2.40;99.90;;;;;;4960815;28;20038;-81
2024/01/12 12:17:33;;;;;;;55.80;23.73;;;2.40;99.90;;;;;;4960981;28;20047;-79
2024/01/12 12:19:58;;;;;;;56.47;20.50;;;2.40;99.90;;;;;;4959928;28;20042;-81
2024/01/12 12:22:24;;;;;;;50.78;17.75;;;2.50;99.90;;;;;;4942092;28;20043;-78
2024/01/12 12:24:50;;;;;;;73.65;28.60;;;2.40;99.90;;;;;;4943039;28;20073;-81
2024/01/12 12:27:16;;;;;;;45.17;17.95;;;2.40;99.90;;;;;;4949744;28;20081;-80
2024/01/12 12:29:43;;;;;;;79.85;27.60;;;2.50;99.90;;;;;;4958135;28;20513;-81
2024/01/12 12:32:11;;;;;;;66.15;26.35;;;2.50;99.90;;;;;;4955702;28;20035;-81
2024/01/12 12:34:40;;;;;;;71.70;28.65;;;2.50;99.90;;;;;;4939983;28;20112;-80
2024/01/12 12:37:07;;;;;;;35.55;12.93;;;2.60;99.90;;;;;;4613310;28;9999808;-80
2024/01/12 12:39:33;;;;;;;86.90;31.23;;;2.50;99.90;;;;;;4948493;28;20511;-81
2024/01/12 12:41:59;;;;;;;60.47;24.50;;;2.50;99.90;;;;;;4927816;28;20039;-80
2024/01/12 12:44:24;;;;;;;83.07;31.13;;;2.50;99.90;;;;;;4940498;28;20031;-81
2024/01/12 12:46:51;;;;;;;84.22;31.25;;;2.40;99.90;;;;;;4946344;28;20121;-80
2024/01/12 12:49:18;;;;;;;43.95;16.75;;;2.50;99.90;;;;;;4946835;28;20047;-81
2024/01/12 12:51:44;;;;;;;48.67;16.98;;;2.40;99.90;;;;;;4944901;28;20478;-78
2024/01/12 12:54:09;;;;;;;18.33;7.90;;;2.40;99.90;;;;;;4958488;28;20067;-78
2024/01/12 12:56:35;;;;;;;76.20;28.45;;;2.40;99.90;;;;;;4962120;28;20450;-79
2024/01/12 12:59:00;;;;;;;38.78;14.43;;;2.40;99.90;;;;;;4958889;28;20379;-81
2024/01/12 13:01:26;;;;;;;16.08;7.97;;;2.40;99.90;;;;;;4942516;28;20042;-78
2024/01/12 13:03:52;;;;;;;49.05;19.30;;;2.40;99.90;;;;;;4946719;28;20035;-79
2024/01/12 13:06:18;;;;;;;58.28;21.83;;;2.30;99.90;;;;;;4940744;28;20038;-78
2024/01/12 13:08:43;;;;;;;59.33;20.30;;;2.30;99.90;;;;;;4947699;28;20078;-78
2024/01/12 13:11:09;;;;;;;63.38;20.85;;;2.30;99.90;;;;;;4944602;28;20031;-77
2024/01/12 13:13:34;;;;;;;56.60;20.67;;;2.30;99.90;;;;;;4945173;28;20054;-77
2024/01/12 13:16:03;;;;;;;68.07;21.95;;;2.30;99.90;;;;;;4941490;28;20043;-76
2024/01/12 13:18:30;;;;;;;69.40;23.42;;;2.30;99.90;;;;;;4942281;28;20046;-77
2024/01/12 13:20:56;;;;;;;62.92;22.15;;;2.20;99.90;;;;;;4945554;28;20038;-76
2024/01/12 13:23:21;;;;;;;57.05;19.85;;;2.20;99.90;;;;;;4957278;28;20469;-77
2024/01/12 13:25:47;;;;;;;44.55;18.83;;;2.20;99.90;;;;;;4931015;28;20042;-77
2024/01/12 13:28:12;;;;;;;54.38;16.77;;;2.20;99.90;;;;;;4943731;28;20039;-77
2024/01/12 13:30:39;;;;;;;61.95;20.63;;;2.20;99.90;;;;;;4926542;28;20346;-77
2024/01/12 13:33:04;;;;;;;30.00;11.35;;;2.20;99.90;;;;;;4944215;28;20042;-77
2024/01/12 13:35:30;;;;;;;55.30;22.83;;;2.10;99.90;;;;;;4958422;28;20620;-77
2024/01/12 13:37:55;;;;;;;52.72;16.73;;;2.10;99.90;;;;;;4944956;28;20043;-78
2024/01/12 13:40:21;;;;;;;63.25;22.90;;;2.10;99.90;;;;;;4959214;28;20944;-77
2024/01/12 13:42:49;;;;;;;22.65;8.25;;;2.10;99.90;;;;;;4959123;28;20035;-77
2024/01/12 13:45:15;;;;;;;62.33;25.42;;;2.10;99.90;;;;;;4960980;28;20030;-78
2024/01/12 13:47:40;;;;;;;60.28;22.67;;;2.10;99.90;;;;;;4946422;28;20039;-77
2024/01/12 13:50:06;;;;;;;39.88;14.40;;;2.10;99.90;;;;;;4931996;28;20031;-77
2024/01/12 13:52:32;;;;;;;44.38;18.67;;;2.00;99.90;;;;;;4957629;28;20043;-77
2024/01/12 13:54:57;;;;;;;52.42;19.80;;;2.10;99.90;;;;;;4944286;28;20786;-77
2024/01/12 13:57:23;;;;;;;55.83;23.63;;;2.10;99.90;;;;;;4960339;28;20159;-78
2024/01/12 13:59:48;;;;;;;39.95;13.65;;;2.10;99.90;;;;;;4961702;28;20073;-76
2024/01/12 14:02:14;;;;;;;56.00;21.98;;;2.00;99.90;;;;;;4960055;28;20135;-77
2024/01/12 14:04:39;;;;;;;53.67;21.02;;;2.10;99.90;;;;;;4961226;28;20407;-78
2024/01/12 14:07:05;;;;;;;59.00;19.17;;;2.10;99.90;;;;;;4959832;28;20141;-78
2024/01/12 14:09:30;;;;;;;45.92;17.75;;;2.00;99.90;;;;;;4942421;28;20384;-78
2024/01/12 14:11:56;;;;;;;47.20;19.67;;;2.00;99.90;;;;;;4957349;28;20049;-77